createdAt,value
2022-11-19T00:01:27.025Z,21.20
2022-11-19T00:03:54.477Z,23.50
2022-11-19T00:06:26.701Z,12.60
2022-11-19T00:08:55.962Z,1.00
2022-11-19T00:11:44.704Z,3.60
2022-11-19T00:14:14.488Z,1.00
2022-11-19T00:16:42.359Z,1.00
2022-11-19T00:19:13.022Z,1.00
2022-11-19T00:21:40.724Z,1.00
2022-11-19T00:24:08.524Z,1.00
2022-11-19T00:26:36.350Z,1.00
2022-11-19T00:29:03.750Z,5.00
2022-11-19T00:31:32.121Z,9.30
2022-11-19T00:33:59.088Z,1.00
2022-11-19T00:36:26.409Z,1.00
2022-11-19T00:38:53.644Z,1.00
2022-11-19T00:41:21.266Z,1.00
2022-11-19T00:43:49.336Z,1.00
2022-11-19T00:46:29.368Z,1.00
2022-11-19T00:48:57.969Z,1.00
2022-11-19T00:51:28.491Z,1.00
2022-11-19T00:53:56.423Z,1.00
2022-11-19T00:56:25.523Z,1.00
2022-11-19T00:58:52.885Z,1.00
2022-11-19T01:01:22.794Z,1.00
2022-11-19T01:03:50.108Z,1.00
2022-11-19T01:06:19.823Z,1.00
2022-11-19T01:08:51.327Z,1.00
2022-11-19T01:11:30.765Z,17.50
2022-11-19T01:13:58.946Z,44.00
2022-11-19T01:16:29.420Z,42.40
2022-11-19T01:18:57.068Z,28.60
2022-11-19T01:21:27.208Z,20.00
2022-11-19T01:23:54.717Z,2.70
2022-11-19T01:26:22.360Z,1.00
2022-11-19T01:28:50.201Z,7.60
2022-11-19T01:31:20.827Z,5.80
2022-11-19T01:33:48.375Z,7.50
2022-11-19T01:36:18.392Z,1.00
2022-11-19T01:38:50.950Z,1.00
2022-11-19T01:41:23.296Z,1.00
2022-11-19T01:43:54.760Z,1.00
2022-11-19T01:46:24.543Z,1.00
2022-11-19T01:49:19.369Z,1.00
2022-11-19T01:52:00.382Z,1.00
2022-11-19T01:54:41.082Z,1.00
2022-11-19T01:57:12.236Z,8.90
2022-11-19T01:59:41.027Z,26.10
2022-11-19T02:02:08.258Z,25.60
2022-11-19T02:04:36.230Z,45.10
2022-11-19T02:07:04.226Z,45.50
2022-11-19T02:09:33.067Z,39.50
2022-11-19T02:12:32.336Z,35.50
2022-11-19T02:15:27.157Z,26.60
2022-11-19T02:18:13.100Z,19.30
2022-11-19T02:20:55.089Z,16.30
2022-11-19T02:24:09.628Z,12.70
2022-11-19T02:26:48.225Z,8.60
2022-11-19T02:29:30.239Z,12.70
2022-11-19T02:32:20.380Z,12.60
2022-11-19T02:34:57.942Z,25.60
2022-11-19T02:37:49.159Z,20.00
2022-11-19T02:40:45.629Z,18.10
2022-11-19T02:43:21.412Z,17.80
2022-11-19T02:46:05.108Z,22.70
2022-11-19T02:48:37.297Z,18.10
2022-11-19T02:51:05.545Z,13.90
2022-11-19T02:53:33.528Z,9.40
2022-11-19T02:56:35.084Z,5.00
2022-11-19T02:59:21.908Z,1.00
2022-11-19T03:02:09.304Z,1.00
2022-11-19T03:04:36.363Z,1.00
2022-11-19T03:07:09.816Z,1.00
2022-11-19T03:09:41.712Z,1.00
2022-11-19T03:13:00.080Z,1.00
2022-11-19T03:16:05.075Z,1.00
2022-11-19T03:18:44.845Z,1.00
2022-11-19T03:21:31.558Z,1.00
2022-11-19T03:24:02.824Z,1.00
2022-11-19T03:26:31.331Z,1.00
2022-11-19T03:29:02.518Z,1.00
2022-11-19T03:31:31.496Z,1.00
2022-11-19T03:34:04.237Z,1.00
2022-11-19T03:36:37.897Z,1.00
2022-11-19T03:39:13.239Z,1.00
2022-11-19T03:41:41.852Z,1.00
2022-11-19T03:44:35.507Z,1.00
2022-11-19T03:47:16.734Z,1.00
2022-11-19T03:49:47.690Z,1.00
2022-11-19T03:52:19.575Z,1.00
2022-11-19T03:54:46.987Z,1.00
2022-11-19T03:57:18.021Z,1.00
2022-11-19T03:59:46.478Z,1.00
2022-11-19T04:02:14.728Z,1.00
2022-11-19T04:04:42.539Z,1.00
2022-11-19T04:07:23.324Z,1.00
2022-11-19T04:09:51.154Z,1.00
2022-11-19T04:12:24.345Z,1.00
2022-11-19T04:14:52.328Z,1.00
2022-11-19T04:17:19.850Z,1.00
2022-11-19T04:19:47.266Z,2.00
2022-11-19T04:22:14.395Z,1.00
2022-11-19T04:24:41.670Z,1.00
2022-11-19T04:27:08.826Z,1.00
2022-11-19T04:29:36.297Z,1.00
2022-11-19T04:32:03.503Z,1.00
2022-11-19T04:34:30.901Z,1.00
2022-11-19T04:36:57.907Z,13.20
2022-11-19T04:39:25.254Z,28.40
2022-11-19T04:41:52.227Z,32.90
2022-11-19T04:44:19.462Z,26.50
2022-11-19T04:46:46.466Z,31.10
2022-11-19T04:49:13.815Z,27.30
2022-11-19T04:51:40.956Z,21.80
2022-11-19T04:54:11.298Z,10.20
2022-11-19T04:56:38.305Z,7.50
2022-11-19T04:59:05.746Z,4.30
2022-11-19T05:01:32.912Z,1.00
2022-11-19T05:04:00.257Z,1.00
2022-11-19T05:06:27.412Z,1.50
2022-11-19T05:08:54.732Z,1.00
2022-11-19T05:11:21.717Z,3.90
2022-11-19T05:13:49.021Z,8.90
2022-11-19T05:16:16.000Z,7.00
2022-11-19T05:18:43.400Z,14.50
2022-11-19T05:21:10.377Z,22.00
2022-11-19T05:23:37.905Z,22.60
2022-11-19T05:26:05.243Z,13.80
2022-11-19T05:28:38.915Z,8.20
2022-11-19T05:31:07.988Z,21.80
2022-11-19T05:33:35.502Z,20.60
2022-11-19T05:36:03.255Z,9.80
2022-11-19T05:38:30.530Z,7.10
2022-11-19T05:40:57.584Z,13.20
2022-11-19T05:43:24.959Z,14.90
2022-11-19T05:45:54.554Z,9.00
2022-11-19T05:48:21.797Z,7.80
2022-11-19T05:50:48.924Z,14.50
2022-11-19T05:53:17.278Z,10.70
2022-11-19T05:55:44.453Z,15.90
2022-11-19T05:58:13.709Z,12.50
2022-11-19T06:00:40.765Z,14.10
2022-11-19T06:03:09.242Z,11.20
2022-11-19T06:05:40.336Z,27.90
2022-11-19T06:08:08.388Z,31.80
2022-11-19T06:10:35.342Z,17.20
2022-11-19T06:13:02.958Z,10.30
2022-11-19T06:15:29.984Z,6.60
2022-11-19T06:17:57.692Z,20.50
2022-11-19T06:20:24.734Z,9.50
2022-11-19T06:22:52.142Z,16.00
2022-11-19T06:25:19.500Z,17.20
2022-11-19T06:27:47.169Z,12.50
2022-11-19T06:30:14.717Z,21.00
2022-11-19T06:32:43.354Z,12.40
2022-11-19T06:35:10.552Z,10.70
2022-11-19T06:37:37.911Z,3.20
2022-11-19T06:40:05.399Z,1.00
2022-11-19T06:42:38.522Z,1.00
2022-11-19T06:45:11.627Z,4.30
2022-11-19T06:47:40.415Z,1.00
2022-11-19T06:50:10.241Z,1.00
2022-11-19T06:52:37.945Z,1.00
2022-11-19T06:55:05.335Z,1.00
2022-11-19T06:57:32.875Z,1.00
2022-11-19T06:59:59.874Z,1.00
2022-11-19T07:02:27.257Z,1.00
2022-11-19T07:04:54.296Z,1.00
2022-11-19T07:07:21.750Z,1.00
2022-11-19T07:09:48.843Z,1.00
2022-11-19T07:12:18.712Z,1.00
2022-11-19T07:14:45.868Z,1.00
2022-11-19T07:17:13.196Z,1.00
2022-11-19T07:19:40.532Z,1.00
2022-11-19T07:22:07.940Z,1.00
2022-11-19T07:24:35.711Z,1.00
2022-11-19T07:27:03.113Z,1.00
2022-11-19T07:29:30.123Z,1.00
2022-11-19T07:31:57.615Z,1.00
2022-11-19T07:34:24.646Z,1.00
2022-11-19T07:36:51.946Z,1.00
2022-11-19T07:39:19.259Z,1.00
2022-11-19T07:42:05.428Z,99.90
2022-11-19T07:44:33.593Z,99.90
2022-11-19T07:47:01.073Z,99.90
2022-11-19T07:49:28.197Z,99.90
2022-11-19T07:51:55.495Z,99.90
2022-11-19T07:54:22.480Z,99.90
2022-11-19T07:56:49.844Z,99.90
2022-11-19T07:59:17.630Z,99.90
2022-11-19T08:01:45.194Z,99.90
2022-11-19T08:04:12.284Z,99.90
2022-11-19T08:06:39.599Z,99.90
2022-11-19T08:09:07.167Z,99.90
2022-11-19T08:11:34.676Z,99.90
2022-11-19T08:14:02.258Z,99.90
2022-11-19T08:16:48.692Z,99.90
2022-11-19T08:19:20.293Z,1.00
2022-11-19T08:21:48.092Z,4.00
2022-11-19T08:24:18.208Z,54.80
2022-11-19T08:26:46.724Z,33.50
2022-11-19T08:29:16.900Z,99.90
2022-11-19T08:31:47.370Z,99.90
2022-11-19T08:34:15.212Z,1.00
2022-11-19T08:36:43.689Z,24.00
2022-11-19T08:39:10.813Z,99.90
2022-11-19T08:41:57.058Z,1.00
2022-11-19T08:44:24.510Z,99.90
2022-11-19T08:46:55.866Z,98.50
2022-11-19T08:49:24.645Z,99.90
2022-11-19T08:51:52.528Z,1.00
2022-11-19T08:54:19.897Z,99.90
2022-11-19T08:56:47.925Z,1.00
2022-11-19T08:59:14.978Z,1.00
2022-11-19T09:01:42.609Z,1.00
2022-11-19T09:04:09.598Z,99.90
2022-11-19T09:06:37.014Z,99.90
2022-11-19T09:09:04.934Z,1.00
2022-11-19T09:11:32.735Z,99.90
2022-11-19T09:13:59.818Z,99.90
2022-11-19T09:16:27.821Z,99.90
2022-11-19T09:18:54.944Z,99.90
2022-11-19T09:21:22.274Z,16.60
2022-11-19T09:23:49.279Z,99.90
2022-11-19T09:26:19.064Z,15.00
2022-11-19T09:28:46.829Z,46.80
2022-11-19T09:31:16.976Z,90.60
2022-11-19T09:33:47.343Z,1.00
2022-11-19T09:36:16.011Z,99.90
2022-11-19T09:38:44.879Z,1.00
2022-11-19T09:41:26.577Z,99.90
2022-11-19T09:44:15.148Z,99.90
2022-11-19T09:47:04.171Z,99.90
2022-11-19T09:49:39.381Z,99.90
2022-11-19T09:52:12.611Z,1.00
2022-11-19T09:54:54.313Z,71.90
2022-11-19T09:57:28.603Z,99.90
2022-11-19T10:00:01.624Z,99.90
2022-11-19T10:02:39.228Z,99.90
2022-11-19T10:05:06.872Z,99.90
2022-11-19T10:08:00.944Z,99.90
2022-11-19T10:10:47.871Z,36.40
2022-11-19T10:13:37.231Z,99.90
2022-11-19T10:16:08.089Z,99.90
2022-11-19T10:19:19.539Z,1.00
2022-11-19T10:22:05.905Z,3.10
2022-11-19T10:24:53.466Z,5.10
2022-11-19T10:27:45.914Z,99.90
2022-11-19T10:30:17.458Z,99.90
2022-11-19T10:32:55.542Z,74.20
2022-11-19T10:35:29.337Z,1.00
2022-11-19T10:37:58.616Z,1.00
2022-11-19T10:40:32.903Z,99.90
2022-11-19T10:43:23.410Z,99.90
2022-11-19T10:45:50.983Z,1.00
2022-11-19T10:48:23.611Z,99.90
2022-11-19T10:50:57.141Z,99.90
2022-11-19T10:53:29.352Z,99.90
2022-11-19T10:56:00.600Z,99.90
2022-11-19T10:58:34.676Z,4.10
2022-11-19T11:01:05.353Z,99.90
2022-11-19T11:04:15.303Z,99.90
2022-11-19T11:07:04.058Z,99.90
2022-11-19T11:09:43.060Z,1.00
2022-11-19T11:12:44.003Z,99.90
2022-11-19T11:15:22.432Z,1.00
2022-11-19T11:18:04.914Z,1.00
2022-11-19T11:20:32.820Z,99.90
2022-11-19T11:23:30.139Z,1.00
2022-11-19T11:25:57.548Z,49.60
2022-11-19T11:28:25.377Z,1.00
2022-11-19T11:30:54.353Z,99.90
2022-11-19T11:33:24.435Z,1.00
2022-11-19T11:35:57.005Z,99.90
2022-11-19T11:38:26.720Z,26.50
2022-11-19T11:44:04.187Z,99.90
2022-11-19T11:46:47.741Z,1.00
2022-11-19T11:49:25.701Z,99.90
2022-11-19T11:52:11.883Z,99.90
2022-11-19T11:54:59.453Z,99.90
2022-11-19T11:57:36.145Z,99.90
2022-11-19T12:00:31.127Z,99.90
2022-11-19T12:03:02.450Z,99.90
2022-11-19T12:05:40.463Z,1.00
2022-11-19T12:08:26.885Z,1.00
2022-11-19T12:11:23.866Z,99.90
2022-11-19T12:14:10.867Z,99.90
2022-11-19T12:16:57.254Z,99.90
2022-11-19T12:19:38.315Z,1.00
2022-11-19T12:22:30.465Z,99.90
2022-11-19T12:25:07.795Z,99.90
2022-11-19T12:27:50.156Z,99.90
2022-11-19T12:30:21.227Z,99.90
2022-11-19T12:32:54.644Z,99.90
2022-11-19T12:35:51.203Z,98.50
2022-11-19T12:38:34.316Z,99.90
2022-11-19T12:41:07.091Z,99.90
2022-11-19T12:43:55.385Z,99.90
2022-11-19T12:46:39.650Z,5.20
2022-11-19T12:49:16.533Z,99.90
2022-11-19T12:52:11.048Z,99.90
2022-11-19T12:55:05.880Z,96.40
2022-11-19T12:57:40.989Z,1.00
2022-11-19T13:00:22.211Z,99.90
2022-11-19T13:03:01.047Z,99.90
2022-11-19T13:05:50.218Z,1.00
2022-11-19T13:08:26.227Z,1.00
2022-11-19T13:11:22.574Z,99.90
2022-11-19T13:13:58.597Z,24.50
2022-11-19T13:16:32.843Z,1.00
2022-11-19T13:19:33.333Z,99.90
2022-11-19T13:22:12.204Z,1.00
2022-11-19T13:24:54.084Z,1.00
2022-11-19T13:27:25.274Z,99.90
2022-11-19T13:29:52.353Z,23.30
2022-11-19T13:32:34.604Z,99.90
2022-11-19T13:35:24.631Z,99.90
2022-11-19T13:38:07.115Z,99.90
2022-11-19T13:40:47.437Z,99.90
2022-11-19T13:43:41.946Z,99.90
2022-11-19T13:46:24.327Z,99.90
2022-11-19T13:49:12.578Z,99.90
2022-11-19T13:52:02.324Z,99.90
2022-11-19T13:54:35.134Z,1.00
2022-11-19T13:57:05.667Z,99.90
2022-11-19T13:59:38.896Z,99.90
2022-11-19T14:02:11.918Z,99.90
2022-11-19T14:05:25.371Z,77.90
2022-11-19T14:07:55.439Z,99.90
2022-11-19T14:10:30.642Z,99.90
2022-11-19T14:13:05.504Z,33.50
2022-11-19T14:16:03.221Z,91.00
2022-11-19T14:19:04.430Z,99.90
2022-11-19T14:21:50.507Z,99.90
2022-11-19T14:24:45.090Z,99.90
2022-11-19T14:27:18.429Z,99.90
2022-11-19T14:29:45.483Z,99.90
2022-11-19T14:32:12.776Z,99.90
2022-11-19T14:34:48.305Z,99.90
2022-11-19T14:37:18.418Z,99.90
2022-11-19T14:39:50.849Z,55.70
2022-11-19T14:42:22.427Z,99.90
2022-11-19T14:45:02.758Z,62.10
2022-11-19T14:47:41.246Z,99.90
2022-11-19T14:50:29.608Z,99.90
2022-11-19T14:53:00.987Z,99.90
2022-11-19T14:55:33.952Z,99.90
2022-11-19T14:58:21.377Z,1.00
2022-11-19T15:00:50.910Z,1.00
2022-11-19T15:03:27.721Z,1.30
2022-11-19T15:05:56.787Z,9.90
2022-11-19T15:08:24.029Z,23.80
2022-11-19T15:11:10.473Z,27.70
2022-11-19T15:13:40.513Z,41.70
2022-11-19T15:16:15.876Z,41.90
2022-11-19T15:18:43.503Z,38.00
2022-11-19T15:21:30.799Z,41.20
2022-11-19T15:24:06.438Z,29.90
2022-11-19T15:26:45.434Z,32.00
2022-11-19T15:29:28.426Z,34.20
2022-11-19T15:32:14.165Z,35.00
2022-11-19T15:35:10.281Z,29.50
2022-11-19T15:37:50.073Z,29.50
2022-11-19T15:40:22.666Z,28.20
2022-11-19T15:43:33.253Z,25.00
2022-11-19T15:46:18.638Z,25.40
2022-11-19T15:49:14.784Z,22.80
2022-11-19T15:52:04.321Z,22.50
2022-11-19T15:54:33.698Z,38.40
2022-11-19T15:57:04.523Z,44.10
2022-11-19T15:59:35.417Z,39.00
2022-11-19T16:02:05.141Z,37.30
2022-11-19T16:04:36.644Z,43.90
2022-11-19T16:07:08.148Z,44.70
2022-11-19T16:09:38.940Z,47.70
2022-11-19T16:12:36.346Z,52.70
2022-11-19T16:15:39.660Z,58.70
2022-11-19T16:18:19.180Z,60.50
2022-11-19T16:20:50.214Z,61.90
2022-11-19T16:23:23.792Z,61.20
2022-11-19T16:25:51.596Z,60.10
2022-11-19T16:28:30.490Z,46.40
2022-11-19T16:31:04.051Z,49.30
2022-11-19T16:33:33.158Z,49.70
2022-11-19T16:36:11.410Z,45.00
2022-11-19T16:38:41.887Z,47.90
2022-11-19T16:41:35.252Z,49.20
2022-11-19T16:44:11.711Z,53.40
2022-11-19T16:46:39.008Z,56.00
2022-11-19T16:49:38.033Z,58.40
2022-11-19T16:52:07.747Z,60.90
2022-11-19T16:54:49.751Z,59.20
2022-11-19T16:57:23.365Z,57.50
2022-11-19T17:00:20.206Z,64.00
2022-11-19T17:02:48.577Z,66.80
2022-11-19T17:05:22.487Z,64.40
2022-11-19T17:07:52.177Z,66.90
2022-11-19T17:10:23.045Z,71.50
2022-11-19T17:13:02.651Z,74.10
2022-11-19T17:16:02.368Z,73.90
2022-11-19T17:18:32.662Z,76.70
2022-11-19T17:21:09.033Z,75.60
2022-11-19T17:23:47.938Z,79.20
2022-11-19T17:26:22.078Z,84.20
2022-11-19T17:28:52.181Z,84.80
2022-11-19T17:31:27.535Z,83.40
2022-11-19T17:33:55.751Z,84.30
2022-11-19T17:36:25.796Z,87.90
2022-11-19T17:38:53.009Z,87.80
2022-11-19T17:41:46.770Z,85.80
2022-11-19T17:44:31.685Z,86.70
2022-11-19T17:46:59.457Z,84.40
2022-11-19T17:49:26.536Z,83.20
2022-11-19T17:51:55.412Z,83.60
2022-11-19T17:54:23.099Z,83.00
2022-11-19T17:56:50.644Z,78.10
2022-11-19T17:59:20.415Z,77.10
2022-11-19T18:01:47.829Z,71.60
2022-11-19T18:04:15.904Z,69.40
2022-11-19T18:06:44.325Z,71.10
2022-11-19T18:09:11.441Z,75.90
2022-11-19T18:11:39.445Z,77.00
2022-11-19T18:14:10.263Z,76.20
2022-11-19T18:16:39.898Z,75.50
2022-11-19T18:19:11.743Z,74.00
2022-11-19T18:21:42.004Z,71.30
2022-11-19T18:24:12.766Z,70.30
2022-11-19T18:26:40.377Z,62.60
2022-11-19T18:29:07.428Z,58.40
2022-11-19T18:31:48.250Z,54.10
2022-11-19T18:34:22.976Z,54.20
2022-11-19T18:36:50.276Z,53.40
2022-11-19T18:39:17.459Z,56.10
2022-11-19T18:41:45.147Z,45.30
2022-11-19T18:44:33.411Z,44.80
2022-11-19T18:47:10.658Z,41.40
2022-11-19T18:49:38.189Z,40.80
2022-11-19T18:52:07.937Z,40.00
2022-11-19T18:54:35.421Z,35.10
2022-11-19T18:57:03.327Z,35.60
2022-11-19T18:59:30.447Z,31.90
2022-11-19T19:01:58.320Z,22.10
2022-11-19T19:04:26.870Z,26.50
2022-11-19T19:06:54.271Z,22.40
2022-11-19T19:09:21.993Z,25.30
2022-11-19T19:12:13.041Z,19.30
2022-11-19T19:14:42.072Z,4.40
2022-11-19T19:17:09.974Z,1.00
2022-11-19T19:19:37.561Z,1.00
2022-11-19T19:22:05.795Z,1.00
2022-11-19T19:24:35.223Z,1.00
2022-11-19T19:27:03.781Z,1.00
2022-11-19T19:29:30.998Z,1.00
2022-11-19T19:31:58.613Z,1.00
2022-11-19T19:34:25.742Z,1.00
2022-11-19T19:36:56.262Z,1.00
2022-11-19T19:39:23.989Z,1.00
2022-11-19T19:41:51.868Z,1.00
2022-11-19T19:44:19.098Z,1.00
2022-11-19T19:46:49.382Z,99.90
2022-11-19T19:49:16.533Z,1.00
2022-11-19T19:51:44.541Z,99.90
2022-11-19T19:54:11.747Z,99.90
2022-11-19T19:56:40.012Z,99.90
2022-11-19T19:59:07.911Z,99.90
2022-11-19T20:01:36.184Z,99.90
2022-11-19T20:04:09.742Z,99.90
2022-11-19T20:06:41.445Z,99.90
2022-11-19T20:09:09.603Z,99.90
2022-11-19T20:11:39.022Z,99.90
2022-11-19T20:14:06.439Z,99.90
2022-11-19T20:16:35.079Z,1.00
2022-11-19T20:19:02.511Z,1.00
2022-11-19T20:21:33.759Z,99.90
2022-11-19T20:24:01.049Z,99.90
2022-11-19T20:26:31.036Z,1.00
2022-11-19T20:29:00.574Z,1.00
2022-11-19T20:31:29.249Z,1.00
2022-11-19T20:34:00.495Z,99.90
2022-11-19T20:36:30.092Z,1.00
2022-11-19T20:38:57.641Z,1.00
2022-11-19T20:41:45.040Z,99.90
2022-11-19T20:44:25.638Z,1.00
2022-11-19T20:47:00.119Z,99.90
2022-11-19T20:49:29.617Z,99.90
2022-11-19T20:51:57.683Z,99.90
2022-11-19T20:54:26.157Z,99.90
2022-11-19T20:56:55.181Z,99.90
2022-11-19T20:59:24.144Z,1.00
2022-11-19T21:01:55.060Z,1.00
2022-11-19T21:04:23.707Z,1.00
2022-11-19T21:06:51.376Z,1.00
2022-11-19T21:09:19.777Z,1.00
2022-11-19T21:11:47.794Z,1.00
2022-11-19T21:14:15.140Z,1.00
2022-11-19T21:16:42.538Z,1.00
2022-11-19T21:19:10.512Z,1.00
2022-11-19T21:21:38.457Z,1.00
2022-11-19T21:24:06.100Z,1.00
2022-11-19T21:26:34.164Z,1.00
2022-11-19T21:29:01.284Z,1.00
2022-11-19T21:31:39.830Z,1.00
2022-11-19T21:34:18.293Z,1.00
2022-11-19T21:36:46.774Z,1.00
2022-11-19T21:39:18.067Z,1.00
2022-11-19T21:41:45.591Z,99.90
2022-11-19T21:44:16.780Z,99.90
2022-11-19T21:46:48.263Z,1.00
2022-11-19T21:49:15.390Z,99.90
2022-11-19T21:51:43.288Z,99.90
2022-11-19T21:54:13.410Z,1.00
2022-11-19T21:56:41.774Z,99.90
2022-11-19T21:59:08.978Z,99.90
2022-11-19T22:01:36.397Z,99.90
2022-11-19T22:04:04.581Z,99.90
2022-11-19T22:06:32.863Z,99.90
2022-11-19T22:09:00.323Z,99.90
2022-11-19T22:11:30.787Z,99.90
2022-11-19T22:14:04.700Z,99.90
2022-11-19T22:16:35.360Z,99.90
2022-11-19T22:19:02.587Z,99.90
2022-11-19T22:21:30.532Z,1.00
2022-11-19T22:23:57.979Z,1.00
2022-11-19T22:26:25.851Z,1.00
2022-11-19T22:28:53.070Z,1.00
2022-11-19T22:31:20.926Z,1.00
2022-11-19T22:33:49.766Z,1.00
2022-11-19T22:36:18.611Z,1.00
2022-11-19T22:38:45.591Z,1.00
2022-11-19T22:41:18.401Z,99.90
2022-11-19T22:43:46.352Z,99.90
2022-11-19T22:46:14.963Z,99.90
2022-11-19T22:48:43.388Z,99.90
2022-11-19T22:51:20.297Z,99.90
2022-11-19T22:53:49.028Z,99.90
2022-11-19T22:56:20.218Z,99.90
2022-11-19T22:58:48.390Z,99.90
2022-11-19T23:01:27.993Z,99.90
2022-11-19T23:03:56.414Z,99.90
2022-11-19T23:06:24.090Z,99.90
2022-11-19T23:08:51.631Z,99.90
2022-11-19T23:11:40.585Z,99.90
2022-11-19T23:14:10.311Z,99.90
2022-11-19T23:16:38.887Z,99.90
2022-11-19T23:19:06.473Z,99.90
2022-11-19T23:21:33.906Z,99.90
2022-11-19T23:24:01.137Z,99.90
2022-11-19T23:26:30.518Z,99.90
2022-11-19T23:28:57.771Z,99.90
2022-11-19T23:31:26.380Z,99.90
2022-11-19T23:33:58.825Z,99.90
2022-11-19T23:36:27.966Z,99.90
2022-11-19T23:38:55.210Z,99.90
2022-11-19T23:41:23.174Z,99.90
2022-11-19T23:43:52.210Z,99.90
2022-11-19T23:46:30.481Z,99.90
2022-11-19T23:48:58.720Z,99.90
2022-11-19T23:51:31.865Z,99.90
2022-11-19T23:53:59.449Z,99.90
2022-11-19T23:56:28.838Z,99.90
2022-11-19T23:58:56.649Z,99.90
